Portada
METAR-TAF:

METAR-TAF

Aeroports :

Aeroport Internacional de Tan Son Nhat

Ciutat Ho Chi Minh, Vietnam

latitud: 10-49N, longitud: 106-40E, altitud: 19 m

Observació

L'informe es va fer fa 27 minuts, a les 11:00 UTC
Vent 7 kt del Sud
Temperatura 29°C
Humitat 70%
Pressió 1010 hPa
Visibilitat: 8000 m
Núvols disperses a una alçada de 1700 ft

METAR: VVTS 211100Z 19007KT 8000 SCT017 29/23 Q1010 NOSIG

Hora: 18:27 (11:27 UTC)

Pronòstic

L'informe es va fer fa 6 hores i 27 minuts, a les 05:00 UTC
Pronòstic vàlid del 21 a les 06 UTC al 22 a les 12 UTC
Vent 7 kt del Oest/Sud-Oest
Visibilitat 10 km o més
Cel ennuvolat a una alçada de 1700 ft

TAF: VVTS 210500Z 2106/2212 24007KT 9999 BKN017

Observacions i pronòstics meteorològics de més de 4000 aeroports (METAR i TAF).

Les estacions disponibles són els punts grocs i vermells al mapa.

Posi el ratolí al punt desitjat per veure el nom de l'estació.

Feu clic per veure les observacions i els pronòstics meteorològics.

Per canviar el mapa: feu clic els botons verds amb una creu de color negre per apropar; al botó verd amb un guió per allunyar la imatge; o en les fletxes verdes per a mapes adjacents.


METAR-TAF: